sensor_id;sensor_type;location;lat;lon;timestamp;P1;durP1;ratioP1;P2;durP2;ratioP2
22205;SDS011;11272;50.104;8.754;2023-02-15T00:02:03;38.57;;;16.47;;
22205;SDS011;11272;50.104;8.754;2023-02-15T00:04:31;37.23;;;15.90;;
22205;SDS011;11272;50.104;8.754;2023-02-15T00:07:13;33.03;;;14.20;;
22205;SDS011;11272;50.104;8.754;2023-02-15T00:09:40;36.70;;;14.30;;
22205;SDS011;11272;50.104;8.754;2023-02-15T00:12:05;43.57;;;18.67;;
22205;SDS011;11272;50.104;8.754;2023-02-15T00:14:31;42.00;;;16.07;;
22205;SDS011;11272;50.104;8.754;2023-02-15T00:16:57;37.47;;;15.53;;
22205;SDS011;11272;50.104;8.754;2023-02-15T00:19:25;19.70;;;7.43;;
22205;SDS011;11272;50.104;8.754;2023-02-15T00:21:52;24.13;;;10.07;;
22205;SDS011;11272;50.104;8.754;2023-02-15T00:24:18;41.03;;;17.17;;
22205;SDS011;11272;50.104;8.754;2023-02-15T00:26:45;42.60;;;17.10;;
22205;SDS011;11272;50.104;8.754;2023-02-15T00:29:13;42.60;;;16.60;;
22205;SDS011;11272;50.104;8.754;2023-02-15T00:31:40;44.97;;;18.03;;
22205;SDS011;11272;50.104;8.754;2023-02-15T00:34:07;38.60;;;16.10;;
22205;SDS011;11272;50.104;8.754;2023-02-15T00:36:36;37.93;;;15.90;;
22205;SDS011;11272;50.104;8.754;2023-02-15T00:39:04;32.80;;;13.60;;
22205;SDS011;11272;50.104;8.754;2023-02-15T00:41:30;44.13;;;16.83;;
22205;SDS011;11272;50.104;8.754;2023-02-15T00:43:56;41.40;;;16.13;;
22205;SDS011;11272;50.104;8.754;2023-02-15T00:46:22;48.37;;;17.03;;
22205;SDS011;11272;50.104;8.754;2023-02-15T00:48:47;47.30;;;18.47;;
22205;SDS011;11272;50.104;8.754;2023-02-15T00:51:13;46.77;;;16.70;;
22205;SDS011;11272;50.104;8.754;2023-02-15T00:53:39;48.00;;;18.03;;
22205;SDS011;11272;50.104;8.754;2023-02-15T00:56:06;49.43;;;17.83;;
22205;SDS011;11272;50.104;8.754;2023-02-15T00:58:32;46.47;;;18.17;;
22205;SDS011;11272;50.104;8.754;2023-02-15T01:01:03;52.10;;;18.73;;
22205;SDS011;11272;50.104;8.754;2023-02-15T01:03:32;42.77;;;18.47;;
22205;SDS011;11272;50.104;8.754;2023-02-15T01:05:58;43.23;;;18.47;;
22205;SDS011;11272;50.104;8.754;2023-02-15T01:08:25;43.70;;;16.70;;
22205;SDS011;11272;50.104;8.754;2023-02-15T01:10:52;52.17;;;19.10;;
22205;SDS011;11272;50.104;8.754;2023-02-15T01:13:18;46.23;;;15.60;;
22205;SDS011;11272;50.104;8.754;2023-02-15T01:15:44;49.53;;;18.13;;
22205;SDS011;11272;50.104;8.754;2023-02-15T01:18:11;46.43;;;17.93;;
22205;SDS011;11272;50.104;8.754;2023-02-15T01:20:38;49.00;;;17.17;;
22205;SDS011;11272;50.104;8.754;2023-02-15T01:23:06;48.37;;;18.17;;
22205;SDS011;11272;50.104;8.754;2023-02-15T01:25:38;45.63;;;18.40;;
22205;SDS011;11272;50.104;8.754;2023-02-15T01:28:05;41.20;;;16.73;;
22205;SDS011;11272;50.104;8.754;2023-02-15T01:30:31;50.53;;;18.97;;
22205;SDS011;11272;50.104;8.754;2023-02-15T01:32:57;46.33;;;18.30;;
22205;SDS011;11272;50.104;8.754;2023-02-15T01:35:23;45.53;;;17.17;;
22205;SDS011;11272;50.104;8.754;2023-02-15T01:37:49;42.93;;;16.67;;
22205;SDS011;11272;50.104;8.754;2023-02-15T01:40:17;43.03;;;17.73;;
22205;SDS011;11272;50.104;8.754;2023-02-15T01:42:43;42.27;;;16.80;;
22205;SDS011;11272;50.104;8.754;2023-02-15T01:48:05;43.73;;;16.80;;
22205;SDS011;11272;50.104;8.754;2023-02-15T01:50:43;40.50;;;15.97;;
22205;SDS011;11272;50.104;8.754;2023-02-15T01:53:15;45.13;;;17.80;;
22205;SDS011;11272;50.104;8.754;2023-02-15T01:55:49;40.33;;;15.60;;
22205;SDS011;11272;50.104;8.754;2023-02-15T01:58:47;42.87;;;16.73;;
22205;SDS011;11272;50.104;8.754;2023-02-15T02:01:16;40.67;;;17.47;;
22205;SDS011;11272;50.104;8.754;2023-02-15T02:06:19;48.00;;;18.40;;
22205;SDS011;11272;50.104;8.754;2023-02-15T02:08:46;41.47;;;17.03;;
22205;SDS011;11272;50.104;8.754;2023-02-15T02:11:13;47.00;;;19.00;;
22205;SDS011;11272;50.104;8.754;2023-02-15T02:13:40;50.53;;;18.30;;
22205;SDS011;11272;50.104;8.754;2023-02-15T02:16:10;43.60;;;17.03;;
22205;SDS011;11272;50.104;8.754;2023-02-15T02:19:05;43.70;;;16.73;;
22205;SDS011;11272;50.104;8.754;2023-02-15T02:27:35;46.33;;;17.20;;
22205;SDS011;11272;50.104;8.754;2023-02-15T02:33:28;42.83;;;18.87;;
22205;SDS011;11272;50.104;8.754;2023-02-15T02:39:06;49.90;;;18.07;;
22205;SDS011;11272;50.104;8.754;2023-02-15T02:41:45;47.03;;;19.03;;
22205;SDS011;11272;50.104;8.754;2023-02-15T02:44:25;47.43;;;18.63;;
22205;SDS011;11272;50.104;8.754;2023-02-15T02:46:57;51.63;;;18.37;;
22205;SDS011;11272;50.104;8.754;2023-02-15T02:49:38;48.57;;;17.40;;
22205;SDS011;11272;50.104;8.754;2023-02-15T02:52:51;52.97;;;19.40;;
22205;SDS011;11272;50.104;8.754;2023-02-15T02:55:03;43.10;;;17.83;;
22205;SDS011;11272;50.104;8.754;2023-02-15T02:57:54;46.17;;;17.67;;
22205;SDS011;11272;50.104;8.754;2023-02-15T03:00:35;46.57;;;18.27;;
22205;SDS011;11272;50.104;8.754;2023-02-15T03:03:09;49.90;;;18.87;;
22205;SDS011;11272;50.104;8.754;2023-02-15T03:05:57;45.47;;;18.10;;
22205;SDS011;11272;50.104;8.754;2023-02-15T03:08:28;48.23;;;17.83;;
22205;SDS011;11272;50.104;8.754;2023-02-15T03:11:01;48.90;;;18.13;;
22205;SDS011;11272;50.104;8.754;2023-02-15T03:13:28;47.50;;;18.23;;
22205;SDS011;11272;50.104;8.754;2023-02-15T03:15:55;45.27;;;17.33;;
22205;SDS011;11272;50.104;8.754;2023-02-15T03:18:47;42.77;;;17.33;;
22205;SDS011;11272;50.104;8.754;2023-02-15T03:21:29;50.63;;;17.77;;
22205;SDS011;11272;50.104;8.754;2023-02-15T03:24:09;48.17;;;17.67;;
22205;SDS011;11272;50.104;8.754;2023-02-15T03:26:38;51.97;;;17.73;;
22205;SDS011;11272;50.104;8.754;2023-02-15T03:29:06;53.57;;;19.67;;
22205;SDS011;11272;50.104;8.754;2023-02-15T03:31:35;46.47;;;17.83;;
22205;SDS011;11272;50.104;8.754;2023-02-15T03:34:04;47.53;;;17.97;;
22205;SDS011;11272;50.104;8.754;2023-02-15T03:36:55;49.47;;;17.87;;
22205;SDS011;11272;50.104;8.754;2023-02-15T03:39:29;49.53;;;18.57;;
22205;SDS011;11272;50.104;8.754;2023-02-15T03:42:14;52.40;;;18.77;;
22205;SDS011;11272;50.104;8.754;2023-02-15T03:44:51;50.27;;;18.57;;
22205;SDS011;11272;50.104;8.754;2023-02-15T03:47:33;42.07;;;14.83;;
22205;SDS011;11272;50.104;8.754;2023-02-15T03:50:05;55.67;;;17.73;;
22205;SDS011;11272;50.104;8.754;2023-02-15T03:52:55;44.50;;;17.07;;
22205;SDS011;11272;50.104;8.754;2023-02-15T03:55:24;52.13;;;18.47;;
22205;SDS011;11272;50.104;8.754;2023-02-15T03:57:52;50.57;;;18.10;;
22205;SDS011;11272;50.104;8.754;2023-02-15T04:00:37;46.00;;;16.83;;
22205;SDS011;11272;50.104;8.754;2023-02-15T04:03:33;49.73;;;18.90;;
22205;SDS011;11272;50.104;8.754;2023-02-15T04:06:04;51.87;;;18.80;;
22205;SDS011;11272;50.104;8.754;2023-02-15T04:08:30;49.80;;;18.60;;
22205;SDS011;11272;50.104;8.754;2023-02-15T04:11:14;52.97;;;18.57;;
22205;SDS011;11272;50.104;8.754;2023-02-15T04:13:40;49.20;;;17.70;;
22205;SDS011;11272;50.104;8.754;2023-02-15T04:16:06;55.73;;;19.67;;
22205;SDS011;11272;50.104;8.754;2023-02-15T04:18:37;57.37;;;20.10;;
22205;SDS011;11272;50.104;8.754;2023-02-15T04:21:25;47.87;;;19.20;;
22205;SDS011;11272;50.104;8.754;2023-02-15T04:24:11;62.77;;;21.13;;
22205;SDS011;11272;50.104;8.754;2023-02-15T04:26:55;50.87;;;19.20;;
22205;SDS011;11272;50.104;8.754;2023-02-15T04:29:22;55.97;;;19.50;;
22205;SDS011;11272;50.104;8.754;2023-02-15T04:31:49;58.00;;;20.40;;
22205;SDS011;11272;50.104;8.754;2023-02-15T04:34:16;60.50;;;20.17;;
22205;SDS011;11272;50.104;8.754;2023-02-15T04:36:42;55.13;;;19.50;;
22205;SDS011;11272;50.104;8.754;2023-02-15T04:39:08;67.57;;;21.97;;
22205;SDS011;11272;50.104;8.754;2023-02-15T04:41:34;53.57;;;18.43;;
22205;SDS011;11272;50.104;8.754;2023-02-15T04:44:00;56.47;;;19.40;;
22205;SDS011;11272;50.104;8.754;2023-02-15T04:46:26;59.80;;;20.43;;
22205;SDS011;11272;50.104;8.754;2023-02-15T04:48:53;60.20;;;19.93;;
22205;SDS011;11272;50.104;8.754;2023-02-15T04:51:19;54.10;;;19.37;;
22205;SDS011;11272;50.104;8.754;2023-02-15T04:53:44;52.10;;;18.63;;
22205;SDS011;11272;50.104;8.754;2023-02-15T04:56:10;51.37;;;19.60;;
22205;SDS011;11272;50.104;8.754;2023-02-15T04:58:35;58.07;;;19.47;;
22205;SDS011;11272;50.104;8.754;2023-02-15T05:01:02;57.30;;;19.63;;
22205;SDS011;11272;50.104;8.754;2023-02-15T05:03:28;60.60;;;20.50;;
22205;SDS011;11272;50.104;8.754;2023-02-15T05:05:54;54.17;;;19.83;;
22205;SDS011;11272;50.104;8.754;2023-02-15T05:08:20;55.57;;;19.27;;
22205;SDS011;11272;50.104;8.754;2023-02-15T05:10:49;48.87;;;17.53;;
22205;SDS011;11272;50.104;8.754;2023-02-15T05:13:15;47.40;;;16.40;;
22205;SDS011;11272;50.104;8.754;2023-02-15T05:15:41;52.67;;;16.27;;
22205;SDS011;11272;50.104;8.754;2023-02-15T05:18:06;55.73;;;20.13;;
22205;SDS011;11272;50.104;8.754;2023-02-15T05:20:33;58.20;;;20.77;;
22205;SDS011;11272;50.104;8.754;2023-02-15T05:22:59;58.93;;;19.73;;
22205;SDS011;11272;50.104;8.754;2023-02-15T05:25:24;57.83;;;19.13;;
22205;SDS011;11272;50.104;8.754;2023-02-15T05:28:10;56.67;;;20.43;;
22205;SDS011;11272;50.104;8.754;2023-02-15T05:30:46;60.83;;;20.90;;
22205;SDS011;11272;50.104;8.754;2023-02-15T05:33:13;58.83;;;20.30;;
22205;SDS011;11272;50.104;8.754;2023-02-15T05:35:38;58.43;;;21.13;;
22205;SDS011;11272;50.104;8.754;2023-02-15T05:38:04;61.90;;;21.10;;
22205;SDS011;11272;50.104;8.754;2023-02-15T05:40:29;59.63;;;21.63;;
22205;SDS011;11272;50.104;8.754;2023-02-15T05:42:55;58.73;;;21.10;;
22205;SDS011;11272;50.104;8.754;2023-02-15T05:45:21;67.53;;;20.50;;
22205;SDS011;11272;50.104;8.754;2023-02-15T05:47:47;57.57;;;21.17;;
22205;SDS011;11272;50.104;8.754;2023-02-15T05:50:13;60.60;;;22.10;;
22205;SDS011;11272;50.104;8.754;2023-02-15T05:52:39;52.30;;;16.90;;
22205;SDS011;11272;50.104;8.754;2023-02-15T05:55:05;56.83;;;19.03;;
22205;SDS011;11272;50.104;8.754;2023-02-15T05:57:31;57.03;;;19.57;;
22205;SDS011;11272;50.104;8.754;2023-02-15T05:59:58;50.20;;;17.07;;
22205;SDS011;11272;50.104;8.754;2023-02-15T06:02:23;52.43;;;19.77;;
22205;SDS011;11272;50.104;8.754;2023-02-15T06:04:49;55.77;;;19.97;;
22205;SDS011;11272;50.104;8.754;2023-02-15T06:07:14;32.93;;;11.83;;
22205;SDS011;11272;50.104;8.754;2023-02-15T06:09:40;55.20;;;20.27;;
22205;SDS011;11272;50.104;8.754;2023-02-15T06:12:06;48.50;;;16.33;;
22205;SDS011;11272;50.104;8.754;2023-02-15T06:14:31;56.93;;;19.10;;
22205;SDS011;11272;50.104;8.754;2023-02-15T06:16:59;54.37;;;19.07;;
22205;SDS011;11272;50.104;8.754;2023-02-15T06:19:25;56.23;;;19.97;;
22205;SDS011;11272;50.104;8.754;2023-02-15T06:21:51;53.80;;;18.27;;
22205;SDS011;11272;50.104;8.754;2023-02-15T06:29:54;54.77;;;20.97;;
22205;SDS011;11272;50.104;8.754;2023-02-15T06:32:20;51.00;;;19.50;;
22205;SDS011;11272;50.104;8.754;2023-02-15T06:34:46;60.53;;;21.77;;
22205;SDS011;11272;50.104;8.754;2023-02-15T06:37:12;51.47;;;17.07;;
22205;SDS011;11272;50.104;8.754;2023-02-15T06:39:37;54.67;;;20.23;;
22205;SDS011;11272;50.104;8.754;2023-02-15T06:44:36;45.10;;;17.87;;
22205;SDS011;11272;50.104;8.754;2023-02-15T06:47:02;44.70;;;16.83;;
22205;SDS011;11272;50.104;8.754;2023-02-15T06:49:28;44.20;;;15.33;;
22205;SDS011;11272;50.104;8.754;2023-02-15T06:51:53;51.43;;;18.87;;
22205;SDS011;11272;50.104;8.754;2023-02-15T06:54:19;50.03;;;17.70;;
22205;SDS011;11272;50.104;8.754;2023-02-15T06:56:47;54.50;;;19.37;;
22205;SDS011;11272;50.104;8.754;2023-02-15T06:59:12;46.70;;;16.67;;
22205;SDS011;11272;50.104;8.754;2023-02-15T07:01:38;59.57;;;20.30;;
22205;SDS011;11272;50.104;8.754;2023-02-15T07:04:04;51.40;;;16.83;;
22205;SDS011;11272;50.104;8.754;2023-02-15T07:06:33;60.27;;;19.77;;
22205;SDS011;11272;50.104;8.754;2023-02-15T07:08:59;38.33;;;12.63;;
22205;SDS011;11272;50.104;8.754;2023-02-15T07:11:25;53.53;;;18.00;;
22205;SDS011;11272;50.104;8.754;2023-02-15T07:14:09;51.83;;;18.33;;
22205;SDS011;11272;50.104;8.754;2023-02-15T07:16:35;50.23;;;17.47;;
22205;SDS011;11272;50.104;8.754;2023-02-15T07:19:00;52.33;;;18.57;;
22205;SDS011;11272;50.104;8.754;2023-02-15T07:21:28;51.27;;;18.70;;
22205;SDS011;11272;50.104;8.754;2023-02-15T07:23:55;46.87;;;18.57;;
22205;SDS011;11272;50.104;8.754;2023-02-15T07:26:22;52.37;;;18.77;;
22205;SDS011;11272;50.104;8.754;2023-02-15T07:28:50;50.80;;;19.53;;
22205;SDS011;11272;50.104;8.754;2023-02-15T07:31:15;41.60;;;17.13;;
22205;SDS011;11272;50.104;8.754;2023-02-15T07:33:42;47.27;;;17.23;;
22205;SDS011;11272;50.104;8.754;2023-02-15T07:36:08;48.33;;;17.40;;
22205;SDS011;11272;50.104;8.754;2023-02-15T07:38:37;41.27;;;16.23;;
22205;SDS011;11272;50.104;8.754;2023-02-15T07:41:05;42.73;;;14.70;;
22205;SDS011;11272;50.104;8.754;2023-02-15T07:43:33;45.30;;;18.00;;
22205;SDS011;11272;50.104;8.754;2023-02-15T07:46:00;42.27;;;14.47;;
22205;SDS011;11272;50.104;8.754;2023-02-15T07:48:31;51.83;;;18.73;;
22205;SDS011;11272;50.104;8.754;2023-02-15T07:51:00;47.17;;;17.30;;
22205;SDS011;11272;50.104;8.754;2023-02-15T07:53:27;47.20;;;17.17;;
22205;SDS011;11272;50.104;8.754;2023-02-15T07:55:53;45.53;;;17.60;;
22205;SDS011;11272;50.104;8.754;2023-02-15T07:58:20;41.53;;;15.97;;
22205;SDS011;11272;50.104;8.754;2023-02-15T08:00:46;33.07;;;13.17;;
22205;SDS011;11272;50.104;8.754;2023-02-15T08:03:27;39.27;;;16.03;;
22205;SDS011;11272;50.104;8.754;2023-02-15T08:05:57;37.77;;;15.67;;
22205;SDS011;11272;50.104;8.754;2023-02-15T08:08:24;38.23;;;14.83;;
22205;SDS011;11272;50.104;8.754;2023-02-15T08:10:58;38.23;;;15.23;;
22205;SDS011;11272;50.104;8.754;2023-02-15T08:13:46;37.10;;;15.00;;
22205;SDS011;11272;50.104;8.754;2023-02-15T08:16:37;39.20;;;14.37;;
22205;SDS011;11272;50.104;8.754;2023-02-15T08:19:06;38.93;;;16.17;;
22205;SDS011;11272;50.104;8.754;2023-02-15T08:21:36;46.30;;;16.60;;
22205;SDS011;11272;50.104;8.754;2023-02-15T08:24:03;34.67;;;12.70;;
22205;SDS011;11272;50.104;8.754;2023-02-15T08:26:30;38.27;;;13.70;;
22205;SDS011;11272;50.104;8.754;2023-02-15T08:28:57;35.90;;;14.70;;
22205;SDS011;11272;50.104;8.754;2023-02-15T08:31:23;32.50;;;11.50;;
22205;SDS011;11272;50.104;8.754;2023-02-15T08:33:49;36.07;;;15.17;;
22205;SDS011;11272;50.104;8.754;2023-02-15T08:36:17;35.47;;;13.47;;
22205;SDS011;11272;50.104;8.754;2023-02-15T08:38:45;32.63;;;13.87;;
22205;SDS011;11272;50.104;8.754;2023-02-15T08:41:22;32.87;;;13.97;;
22205;SDS011;11272;50.104;8.754;2023-02-15T08:43:49;36.20;;;14.67;;
22205;SDS011;11272;50.104;8.754;2023-02-15T08:46:17;32.57;;;12.77;;
22205;SDS011;11272;50.104;8.754;2023-02-15T08:48:44;32.07;;;11.57;;
22205;SDS011;11272;50.104;8.754;2023-02-15T08:51:18;30.30;;;12.93;;
22205;SDS011;11272;50.104;8.754;2023-02-15T08:53:49;31.70;;;12.90;;
22205;SDS011;11272;50.104;8.754;2023-02-15T08:56:17;28.40;;;11.60;;
22205;SDS011;11272;50.104;8.754;2023-02-15T08:58:51;27.53;;;12.20;;
22205;SDS011;11272;50.104;8.754;2023-02-15T09:01:20;34.60;;;11.87;;
22205;SDS011;11272;50.104;8.754;2023-02-15T09:03:48;25.10;;;11.43;;
22205;SDS011;11272;50.104;8.754;2023-02-15T09:06:18;37.07;;;12.70;;
22205;SDS011;11272;50.104;8.754;2023-02-15T09:08:44;29.70;;;12.33;;
22205;SDS011;11272;50.104;8.754;2023-02-15T09:11:10;29.07;;;12.33;;
22205;SDS011;11272;50.104;8.754;2023-02-15T09:13:48;27.30;;;11.73;;
22205;SDS011;11272;50.104;8.754;2023-02-15T09:16:16;34.33;;;13.00;;
22205;SDS011;11272;50.104;8.754;2023-02-15T09:18:42;35.67;;;14.40;;
22205;SDS011;11272;50.104;8.754;2023-02-15T09:21:12;22.73;;;9.23;;
22205;SDS011;11272;50.104;8.754;2023-02-15T09:23:45;31.57;;;12.73;;
22205;SDS011;11272;50.104;8.754;2023-02-15T09:26:13;35.63;;;13.73;;
22205;SDS011;11272;50.104;8.754;2023-02-15T09:28:43;34.07;;;13.67;;
22205;SDS011;11272;50.104;8.754;2023-02-15T09:31:10;31.27;;;12.10;;
22205;SDS011;11272;50.104;8.754;2023-02-15T09:33:38;28.13;;;13.07;;
22205;SDS011;11272;50.104;8.754;2023-02-15T09:36:05;24.50;;;10.23;;
22205;SDS011;11272;50.104;8.754;2023-02-15T09:38:38;25.20;;;11.00;;
22205;SDS011;11272;50.104;8.754;2023-02-15T09:52:51;25.30;;;10.17;;
22205;SDS011;11272;50.104;8.754;2023-02-15T09:55:42;25.93;;;10.83;;
22205;SDS011;11272;50.104;8.754;2023-02-15T09:58:17;31.37;;;13.20;;
22205;SDS011;11272;50.104;8.754;2023-02-15T10:15:56;21.13;;;9.80;;
22205;SDS011;11272;50.104;8.754;2023-02-15T10:26:56;25.60;;;11.50;;
22205;SDS011;11272;50.104;8.754;2023-02-15T10:29:39;23.10;;;10.80;;
22205;SDS011;11272;50.104;8.754;2023-02-15T10:32:28;22.70;;;11.13;;
22205;SDS011;11272;50.104;8.754;2023-02-15T10:35:01;23.27;;;11.37;;
22205;SDS011;11272;50.104;8.754;2023-02-15T10:40:51;24.73;;;11.93;;
22205;SDS011;11272;50.104;8.754;2023-02-15T10:43:35;24.23;;;11.03;;
22205;SDS011;11272;50.104;8.754;2023-02-15T10:46:07;24.43;;;10.90;;
22205;SDS011;11272;50.104;8.754;2023-02-15T10:51:44;42.60;;;13.93;;
22205;SDS011;11272;50.104;8.754;2023-02-15T10:54:44;17.20;;;8.37;;
22205;SDS011;11272;50.104;8.754;2023-02-15T10:57:25;23.50;;;11.13;;
22205;SDS011;11272;50.104;8.754;2023-02-15T11:00:02;31.50;;;12.97;;
22205;SDS011;11272;50.104;8.754;2023-02-15T11:05:25;27.60;;;12.00;;
22205;SDS011;11272;50.104;8.754;2023-02-15T11:08:08;29.50;;;13.03;;
22205;SDS011;11272;50.104;8.754;2023-02-15T11:13:18;27.90;;;14.07;;
22205;SDS011;11272;50.104;8.754;2023-02-15T11:15:57;28.37;;;12.97;;
22205;SDS011;11272;50.104;8.754;2023-02-15T11:18:32;36.33;;;14.33;;
22205;SDS011;11272;50.104;8.754;2023-02-15T11:21:02;33.83;;;13.30;;
22205;SDS011;11272;50.104;8.754;2023-02-15T11:23:40;33.10;;;13.13;;
22205;SDS011;11272;50.104;8.754;2023-02-15T11:26:21;34.33;;;12.77;;
22205;SDS011;11272;50.104;8.754;2023-02-15T11:28:55;35.47;;;15.10;;
22205;SDS011;11272;50.104;8.754;2023-02-15T11:31:29;38.23;;;16.13;;
22205;SDS011;11272;50.104;8.754;2023-02-15T11:34:10;39.90;;;17.73;;
22205;SDS011;11272;50.104;8.754;2023-02-15T11:36:44;39.03;;;16.80;;
22205;SDS011;11272;50.104;8.754;2023-02-15T11:39:14;45.87;;;17.07;;
22205;SDS011;11272;50.104;8.754;2023-02-15T11:41:50;45.23;;;18.60;;
22205;SDS011;11272;50.104;8.754;2023-02-15T11:44:23;43.33;;;19.27;;
22205;SDS011;11272;50.104;8.754;2023-02-15T11:46:53;44.90;;;18.87;;
22205;SDS011;11272;50.104;8.754;2023-02-15T11:49:27;41.57;;;17.67;;
22205;SDS011;11272;50.104;8.754;2023-02-15T11:51:56;40.60;;;18.33;;
22205;SDS011;11272;50.104;8.754;2023-02-15T11:54:26;48.43;;;18.37;;
22205;SDS011;11272;50.104;8.754;2023-02-15T11:59:39;34.83;;;15.53;;
22205;SDS011;11272;50.104;8.754;2023-02-15T12:02:14;38.73;;;16.87;;
22205;SDS011;11272;50.104;8.754;2023-02-15T12:04:43;42.47;;;17.33;;
22205;SDS011;11272;50.104;8.754;2023-02-15T12:07:24;38.10;;;16.30;;
22205;SDS011;11272;50.104;8.754;2023-02-15T12:09:59;45.20;;;18.67;;
22205;SDS011;11272;50.104;8.754;2023-02-15T12:12:27;38.23;;;15.83;;
22205;SDS011;11272;50.104;8.754;2023-02-15T12:14:55;42.43;;;18.90;;
22205;SDS011;11272;50.104;8.754;2023-02-15T12:17:29;44.73;;;18.73;;
22205;SDS011;11272;50.104;8.754;2023-02-15T12:20:18;44.87;;;16.77;;
22205;SDS011;11272;50.104;8.754;2023-02-15T12:22:51;37.43;;;17.60;;
22205;SDS011;11272;50.104;8.754;2023-02-15T12:27:54;46.17;;;17.70;;
22205;SDS011;11272;50.104;8.754;2023-02-15T12:30:37;42.10;;;17.00;;
22205;SDS011;11272;50.104;8.754;2023-02-15T12:33:13;42.23;;;17.40;;
22205;SDS011;11272;50.104;8.754;2023-02-15T12:35:47;48.27;;;19.63;;
22205;SDS011;11272;50.104;8.754;2023-02-15T12:40:41;51.27;;;19.47;;
22205;SDS011;11272;50.104;8.754;2023-02-15T12:43:32;48.77;;;18.47;;
22205;SDS011;11272;50.104;8.754;2023-02-15T12:48:46;49.23;;;19.40;;
22205;SDS011;11272;50.104;8.754;2023-02-15T12:51:13;50.60;;;20.13;;
22205;SDS011;11272;50.104;8.754;2023-02-15T12:53:40;53.10;;;20.33;;
22205;SDS011;11272;50.104;8.754;2023-02-15T12:56:09;50.00;;;20.60;;
22205;SDS011;11272;50.104;8.754;2023-02-15T12:58:36;45.47;;;17.83;;
22205;SDS011;11272;50.104;8.754;2023-02-15T13:03:38;46.27;;;19.10;;
22205;SDS011;11272;50.104;8.754;2023-02-15T13:06:18;47.07;;;18.80;;
22205;SDS011;11272;50.104;8.754;2023-02-15T13:08:46;46.07;;;20.10;;
22205;SDS011;11272;50.104;8.754;2023-02-15T13:11:20;33.67;;;14.17;;
22205;SDS011;11272;50.104;8.754;2023-02-15T13:13:53;44.83;;;19.33;;
22205;SDS011;11272;50.104;8.754;2023-02-15T13:16:41;47.33;;;19.43;;
22205;SDS011;11272;50.104;8.754;2023-02-15T13:21:56;41.37;;;19.37;;
22205;SDS011;11272;50.104;8.754;2023-02-15T13:24:24;48.50;;;19.00;;
22205;SDS011;11272;50.104;8.754;2023-02-15T13:26:50;48.40;;;19.60;;
22205;SDS011;11272;50.104;8.754;2023-02-15T13:29:26;46.43;;;19.43;;
22205;SDS011;11272;50.104;8.754;2023-02-15T13:31:54;47.13;;;20.07;;
22205;SDS011;11272;50.104;8.754;2023-02-15T13:34:27;47.57;;;20.37;;
22205;SDS011;11272;50.104;8.754;2023-02-15T13:40:48;43.23;;;19.27;;
22205;SDS011;11272;50.104;8.754;2023-02-15T13:42:59;49.60;;;19.47;;
22205;SDS011;11272;50.104;8.754;2023-02-15T13:46:00;55.03;;;19.60;;
22205;SDS011;11272;50.104;8.754;2023-02-15T13:51:18;50.33;;;21.83;;
22205;SDS011;11272;50.104;8.754;2023-02-15T14:02:44;46.63;;;17.93;;
22205;SDS011;11272;50.104;8.754;2023-02-15T14:05:20;43.03;;;18.87;;
22205;SDS011;11272;50.104;8.754;2023-02-15T14:22:02;44.63;;;19.60;;
22205;SDS011;11272;50.104;8.754;2023-02-15T14:30:37;47.90;;;19.40;;
22205;SDS011;11272;50.104;8.754;2023-02-15T14:35:59;54.63;;;21.77;;
22205;SDS011;11272;50.104;8.754;2023-02-15T14:41:12;50.27;;;19.70;;
22205;SDS011;11272;50.104;8.754;2023-02-15T14:46:30;54.87;;;22.27;;
22205;SDS011;11272;50.104;8.754;2023-02-15T14:49:11;51.87;;;21.50;;
22205;SDS011;11272;50.104;8.754;2023-02-15T14:56:46;50.17;;;20.63;;
22205;SDS011;11272;50.104;8.754;2023-02-15T14:59:46;49.10;;;20.20;;
22205;SDS011;11272;50.104;8.754;2023-02-15T15:02:44;56.10;;;21.90;;
22205;SDS011;11272;50.104;8.754;2023-02-15T15:05:19;58.67;;;22.13;;
22205;SDS011;11272;50.104;8.754;2023-02-15T15:07:50;46.90;;;17.23;;
22205;SDS011;11272;50.104;8.754;2023-02-15T15:12:46;42.97;;;17.27;;
22205;SDS011;11272;50.104;8.754;2023-02-15T15:22:50;56.13;;;22.47;;
22205;SDS011;11272;50.104;8.754;2023-02-15T15:25:48;60.10;;;22.63;;
22205;SDS011;11272;50.104;8.754;2023-02-15T15:40:19;62.67;;;24.10;;
22205;SDS011;11272;50.104;8.754;2023-02-15T15:45:46;53.17;;;21.07;;
22205;SDS011;11272;50.104;8.754;2023-02-15T15:51:00;63.60;;;23.47;;
22205;SDS011;11272;50.104;8.754;2023-02-15T15:53:31;59.83;;;22.87;;
22205;SDS011;11272;50.104;8.754;2023-02-15T15:56:06;64.93;;;24.30;;
22205;SDS011;11272;50.104;8.754;2023-02-15T15:58:36;61.87;;;23.73;;
22205;SDS011;11272;50.104;8.754;2023-02-15T16:01:07;65.20;;;24.97;;
22205;SDS011;11272;50.104;8.754;2023-02-15T16:03:36;62.10;;;25.87;;
22205;SDS011;11272;50.104;8.754;2023-02-15T16:06:02;62.03;;;23.97;;
22205;SDS011;11272;50.104;8.754;2023-02-15T16:08:28;65.67;;;26.47;;
22205;SDS011;11272;50.104;8.754;2023-02-15T16:10:59;71.40;;;25.47;;
22205;SDS011;11272;50.104;8.754;2023-02-15T16:13:33;59.83;;;25.13;;
22205;SDS011;11272;50.104;8.754;2023-02-15T16:15:59;65.00;;;25.50;;
22205;SDS011;11272;50.104;8.754;2023-02-15T16:18:25;66.57;;;25.97;;
22205;SDS011;11272;50.104;8.754;2023-02-15T16:20:58;62.63;;;26.30;;
22205;SDS011;11272;50.104;8.754;2023-02-15T16:29:13;65.33;;;25.10;;
22205;SDS011;11272;50.104;8.754;2023-02-15T16:31:55;70.23;;;27.60;;
22205;SDS011;11272;50.104;8.754;2023-02-15T16:34:25;73.17;;;26.90;;
22205;SDS011;11272;50.104;8.754;2023-02-15T16:37:12;70.23;;;25.40;;
22205;SDS011;11272;50.104;8.754;2023-02-15T16:39:41;71.13;;;25.23;;
22205;SDS011;11272;50.104;8.754;2023-02-15T16:42:08;73.70;;;26.70;;
22205;SDS011;11272;50.104;8.754;2023-02-15T16:44:36;69.57;;;27.90;;
22205;SDS011;11272;50.104;8.754;2023-02-15T16:47:02;77.37;;;27.33;;
22205;SDS011;11272;50.104;8.754;2023-02-15T16:49:28;76.30;;;27.20;;
22205;SDS011;11272;50.104;8.754;2023-02-15T16:52:05;80.43;;;28.43;;
22205;SDS011;11272;50.104;8.754;2023-02-15T16:54:32;74.27;;;27.23;;
22205;SDS011;11272;50.104;8.754;2023-02-15T16:56:59;77.40;;;27.27;;
22205;SDS011;11272;50.104;8.754;2023-02-15T17:01:59;92.80;;;31.87;;
22205;SDS011;11272;50.104;8.754;2023-02-15T17:04:30;75.03;;;26.77;;
22205;SDS011;11272;50.104;8.754;2023-02-15T17:07:04;78.57;;;28.23;;
22205;SDS011;11272;50.104;8.754;2023-02-15T17:09:31;80.80;;;28.77;;
22205;SDS011;11272;50.104;8.754;2023-02-15T17:11:58;79.07;;;27.70;;
22205;SDS011;11272;50.104;8.754;2023-02-15T17:14:28;83.03;;;27.47;;
22205;SDS011;11272;50.104;8.754;2023-02-15T17:16:59;87.57;;;28.80;;
22205;SDS011;11272;50.104;8.754;2023-02-15T17:19:33;81.33;;;30.83;;
22205;SDS011;11272;50.104;8.754;2023-02-15T17:22:25;78.97;;;29.33;;
22205;SDS011;11272;50.104;8.754;2023-02-15T17:24:59;91.20;;;31.93;;
22205;SDS011;11272;50.104;8.754;2023-02-15T17:27:28;86.33;;;31.43;;
22205;SDS011;11272;50.104;8.754;2023-02-15T17:30:02;85.00;;;30.07;;
22205;SDS011;11272;50.104;8.754;2023-02-15T17:32:37;89.10;;;32.83;;
22205;SDS011;11272;50.104;8.754;2023-02-15T17:35:18;80.73;;;31.70;;
22205;SDS011;11272;50.104;8.754;2023-02-15T17:37:47;85.70;;;32.33;;
22205;SDS011;11272;50.104;8.754;2023-02-15T17:40:27;82.37;;;31.10;;